Time;durP1;ratioP1;P1;durP2;ratioP2;P2;SDS_P1;SDS_P2;PMS_P1;PMS_P2;Temp;Humidity;BMP_temperature;BMP_pressure;BME280_temperature;BME280_humidity;BME280_pressure;Samples;Min_cycle;Max_cycle;Signal;HPM_P1;HPM_P2
2022/10/05 00:01:26;;;;;;;13.05;6.78;;;10.40;99.90;;;;;;4979526;28;20031;-67
2022/10/05 00:04:00;;;;;;;12.38;6.72;;;10.40;99.90;;;;;;4981832;28;20046;-68
2022/10/05 00:06:29;;;;;;;10.98;6.00;;;10.40;99.90;;;;;;4972584;28;20042;-69
2022/10/05 00:08:55;;;;;;;11.95;6.43;;;10.40;99.90;;;;;;4986230;28;20180;-67
2022/10/05 00:11:21;;;;;;;12.98;7.28;;;10.40;99.90;;;;;;5033025;28;20029;-68
2022/10/05 00:13:47;;;;;;;13.45;6.85;;;10.30;99.90;;;;;;5032881;28;20031;-68
2022/10/05 00:16:18;;;;;;;10.55;5.70;;;10.30;99.90;;;;;;5025095;28;20037;-68
2022/10/05 00:18:49;;;;;;;14.70;7.18;;;10.30;99.90;;;;;;5033091;28;20029;-67
2022/10/05 00:21:18;;;;;;;13.00;7.05;;;10.20;99.90;;;;;;5032593;28;20033;-67
2022/10/05 00:23:44;;;;;;;13.05;6.75;;;10.20;99.90;;;;;;5024535;28;20022;-67
2022/10/05 00:26:22;;;;;;;14.65;7.40;;;10.20;99.90;;;;;;5034968;28;20413;-69
2022/10/05 00:28:48;;;;;;;12.82;6.70;;;10.20;99.90;;;;;;5033065;28;20026;-68
2022/10/05 00:31:18;;;;;;;15.00;7.97;;;10.10;99.90;;;;;;5032675;28;20025;-68
2022/10/05 00:33:45;;;;;;;14.18;7.00;;;10.00;99.90;;;;;;5014941;28;20021;-67
2022/10/05 00:36:11;;;;;;;15.13;7.28;;;10.00;99.90;;;;;;5033097;28;20030;-68
2022/10/05 00:38:37;;;;;;;13.93;7.70;;;10.00;99.90;;;;;;5033151;28;20507;-68
2022/10/05 00:41:32;;;;;;;14.38;7.85;;;10.00;99.90;;;;;;5031353;28;20033;-69
2022/10/05 00:43:58;;;;;;;17.52;7.47;;;10.00;99.90;;;;;;5031928;28;20049;-67
2022/10/05 00:46:55;;;;;;;15.32;7.75;;;10.00;99.90;;;;;;5014126;28;20076;-68
2022/10/05 00:49:34;;;;;;;16.65;8.63;;;10.00;99.90;;;;;;5020048;28;20037;-68
2022/10/05 00:52:32;;;;;;;15.00;8.63;;;10.00;99.90;;;;;;5031970;28;20527;-69
2022/10/05 00:55:15;;;;;;;16.02;9.15;;;10.00;99.90;;;;;;5009225;28;20479;-68
2022/10/05 00:58:06;;;;;;;13.63;7.57;;;10.00;99.90;;;;;;5029436;28;20033;-68
2022/10/05 01:00:51;;;;;;;11.95;7.35;;;10.00;99.90;;;;;;5032243;28;20018;-64
2022/10/05 01:03:31;;;;;;;13.40;7.65;;;10.00;99.90;;;;;;5004511;28;20087;-66
2022/10/05 01:06:29;;;;;;;12.20;6.57;;;9.90;99.90;;;;;;5030490;28;20047;-68
2022/10/05 01:09:25;;;;;;;19.20;7.40;;;9.90;99.90;;;;;;5042974;28;20037;-69
2022/10/05 01:12:21;;;;;;;17.42;7.63;;;9.90;99.90;;;;;;4993319;28;20145;-68
2022/10/05 01:14:59;;;;;;;15.05;8.20;;;9.80;99.90;;;;;;4964083;28;20046;-68
2022/10/05 01:17:37;;;;;;;14.05;8.07;;;9.80;99.90;;;;;;4951649;29;20039;-68
2022/10/05 01:20:38;;;;;;;15.68;8.57;;;9.80;99.90;;;;;;4935199;29;20159;-68
2022/10/05 01:23:10;;;;;;;13.85;7.85;;;9.80;99.90;;;;;;4947165;28;20075;-68
2022/10/05 01:25:56;;;;;;;12.90;7.47;;;9.80;99.90;;;;;;4951125;29;20526;-66
2022/10/05 01:28:31;;;;;;;19.08;9.02;;;9.80;99.90;;;;;;4950925;29;20086;-68
2022/10/05 01:31:04;;;;;;;17.92;8.60;;;9.80;99.90;;;;;;4951329;29;20119;-68
2022/10/05 01:33:37;;;;;;;15.25;8.50;;;9.70;99.90;;;;;;4951375;29;20620;-68
2022/10/05 01:36:32;;;;;;;14.73;7.85;;;9.70;99.90;;;;;;4950482;29;20419;-65
2022/10/05 01:39:28;;;;;;;14.20;5.82;;;9.80;99.90;;;;;;4945798;28;20074;-68
2022/10/05 01:42:34;;;;;;;10.65;6.68;;;9.70;99.90;;;;;;4942515;29;20082;-68
2022/10/05 01:45:30;;;;;;;14.68;8.70;;;9.60;99.90;;;;;;4929377;29;20074;-68
2022/10/05 01:48:07;;;;;;;14.88;6.70;;;9.50;99.90;;;;;;4947895;28;20053;-69
2022/10/05 01:50:35;;;;;;;14.85;7.55;;;9.50;99.90;;;;;;4955631;28;20043;-68
2022/10/05 01:53:12;;;;;;;19.15;8.38;;;9.50;99.90;;;;;;4953262;28;20094;-68
2022/10/05 01:55:47;;;;;;;13.77;7.43;;;9.50;99.90;;;;;;4970519;28;20046;-68
2022/10/05 01:58:19;;;;;;;13.77;7.05;;;9.50;99.90;;;;;;4969777;28;20027;-68
2022/10/05 02:01:06;;;;;;;13.45;6.78;;;9.50;99.90;;;;;;4986070;28;20516;-69
2022/10/05 02:03:37;;;;;;;13.48;7.30;;;9.40;99.90;;;;;;4970269;28;20038;-68
2022/10/05 02:06:21;;;;;;;14.07;7.50;;;9.40;99.90;;;;;;4970071;28;20042;-68
2022/10/05 02:09:06;;;;;;;15.43;7.90;;;9.40;99.90;;;;;;4983827;28;20505;-68
2022/10/05 02:11:33;;;;;;;12.63;7.38;;;9.40;99.90;;;;;;4954411;28;20061;-68
2022/10/05 02:14:06;;;;;;;14.70;7.60;;;9.40;99.90;;;;;;4954144;28;20026;-68
2022/10/05 02:16:40;;;;;;;16.50;8.73;;;9.40;99.90;;;;;;5012985;28;20045;-69
2022/10/05 02:19:26;;;;;;;13.65;8.10;;;9.40;99.90;;;;;;5030953;28;20101;-68
2022/10/05 02:22:03;;;;;;;14.77;7.53;;;9.30;99.90;;;;;;5030700;28;20064;-68
2022/10/05 02:24:36;;;;;;;14.85;7.10;;;9.30;99.90;;;;;;5029948;28;20497;-69
2022/10/05 02:27:04;;;;;;;14.93;9.25;;;9.30;99.90;;;;;;5030043;28;20025;-68
2022/10/05 02:29:33;;;;;;;18.08;8.38;;;9.30;99.90;;;;;;5031440;28;20056;-68
2022/10/05 02:32:18;;;;;;;15.88;8.95;;;9.30;99.90;;;;;;5013006;28;20436;-68
2022/10/05 02:34:45;;;;;;;15.95;8.55;;;9.20;99.90;;;;;;5029883;28;20030;-68
2022/10/05 02:37:39;;;;;;;13.57;7.97;;;9.20;99.90;;;;;;5016314;28;20042;-68
2022/10/05 02:40:34;;;;;;;17.45;7.60;;;9.20;99.90;;;;;;5033505;28;20458;-68
2022/10/05 02:43:09;;;;;;;13.38;7.80;;;9.10;99.90;;;;;;4973600;28;20047;-69
2022/10/05 02:45:57;;;;;;;17.92;8.65;;;9.10;99.90;;;;;;4989655;28;20493;-69
2022/10/05 02:48:43;;;;;;;14.55;8.57;;;9.10;99.90;;;;;;4989483;28;20031;-69
2022/10/05 02:51:18;;;;;;;15.00;8.15;;;9.10;99.90;;;;;;4969739;28;20031;-68
2022/10/05 02:53:54;;;;;;;13.02;7.45;;;9.00;99.90;;;;;;4986736;28;20039;-67
2022/10/05 02:56:36;;;;;;;16.85;8.68;;;9.10;99.90;;;;;;4989568;28;20151;-67
2022/10/05 02:59:15;;;;;;;15.13;7.68;;;9.10;99.90;;;;;;4973117;28;20039;-68
2022/10/05 03:01:50;;;;;;;14.15;7.93;;;9.10;99.90;;;;;;4989498;28;20508;-68
2022/10/05 03:04:28;;;;;;;15.13;7.57;;;9.10;99.90;;;;;;4989564;28;20026;-68
2022/10/05 03:07:16;;;;;;;13.30;7.00;;;9.20;99.90;;;;;;4994075;28;20042;-68
2022/10/05 03:09:58;;;;;;;13.55;7.63;;;9.20;99.90;;;;;;4977321;28;20082;-68
2022/10/05 03:12:30;;;;;;;16.55;7.40;;;9.20;99.90;;;;;;4989220;28;20067;-68
2022/10/05 03:15:27;;;;;;;18.38;7.95;;;9.20;99.90;;;;;;4956705;28;20406;-68
2022/10/05 03:17:57;;;;;;;10.35;6.25;;;9.30;99.90;;;;;;4963313;28;20039;-69
2022/10/05 03:20:36;;;;;;;11.27;6.43;;;9.30;99.90;;;;;;5041146;28;20033;-68
2022/10/05 03:23:06;;;;;;;8.55;5.10;;;9.20;99.90;;;;;;5031773;28;20388;-68
2022/10/05 03:25:46;;;;;;;11.30;6.00;;;9.20;99.90;;;;;;5016019;28;20026;-69
2022/10/05 03:28:27;;;;;;;18.52;6.45;;;9.20;99.90;;;;;;5033679;28;20132;-68
2022/10/05 03:31:20;;;;;;;19.13;7.57;;;9.10;99.90;;;;;;5032427;28;20121;-68
2022/10/05 03:34:00;;;;;;;13.70;6.70;;;9.10;99.90;;;;;;4972720;28;20512;-69
2022/10/05 03:36:39;;;;;;;16.08;6.97;;;9.10;99.90;;;;;;4956190;28;20159;-68
2022/10/05 03:39:31;;;;;;;16.90;8.30;;;9.10;99.90;;;;;;4956336;28;20038;-68
2022/10/05 03:42:35;;;;;;;12.40;7.55;;;9.10;99.90;;;;;;4976384;28;20138;-69
2022/10/05 03:45:22;;;;;;;13.20;6.45;;;9.10;99.90;;;;;;4979951;28;20045;-68
2022/10/05 03:47:49;;;;;;;12.35;6.57;;;9.10;99.90;;;;;;4942282;28;20030;-68
2022/10/05 03:50:44;;;;;;;20.42;8.18;;;9.10;99.90;;;;;;4963062;28;20030;-67
2022/10/05 03:53:22;;;;;;;14.52;7.00;;;9.10;99.90;;;;;;4955416;28;20035;-64
2022/10/05 03:56:21;;;;;;;12.30;6.80;;;9.10;99.90;;;;;;4971763;28;20509;-67
2022/10/05 03:59:00;;;;;;;10.23;6.30;;;9.10;99.90;;;;;;4956944;28;20105;-68
2022/10/05 04:01:39;;;;;;;11.27;6.68;;;9.00;99.90;;;;;;4965147;28;20035;-69
2022/10/05 04:04:10;;;;;;;12.20;6.38;;;9.00;99.90;;;;;;4980685;28;20602;-68
2022/10/05 04:06:44;;;;;;;12.30;6.22;;;8.90;99.90;;;;;;4973276;28;20046;-69
2022/10/05 04:09:15;;;;;;;12.50;6.65;;;8.90;99.90;;;;;;4965877;28;20047;-70
2022/10/05 04:11:48;;;;;;;16.27;7.72;;;8.90;99.90;;;;;;5007743;28;20109;-69
2022/10/05 04:14:21;;;;;;;12.63;6.55;;;8.90;99.90;;;;;;5031171;28;20384;-70
2022/10/05 04:16:56;;;;;;;11.85;6.63;;;8.90;99.90;;;;;;5028180;28;20025;-69
2022/10/05 04:19:44;;;;;;;17.95;7.03;;;8.90;99.90;;;;;;5026279;28;20026;-68
2022/10/05 04:22:22;;;;;;;11.57;6.88;;;8.90;99.90;;;;;;5031127;28;20044;-69
2022/10/05 04:24:51;;;;;;;16.63;8.98;;;8.90;99.90;;;;;;5030834;28;20079;-69
2022/10/05 04:27:21;;;;;;;17.77;7.22;;;8.80;99.90;;;;;;5014917;28;20025;-68
2022/10/05 04:30:07;;;;;;;12.77;7.05;;;8.80;99.90;;;;;;5014466;28;20032;-70
2022/10/05 04:32:52;;;;;;;11.77;5.57;;;8.80;99.90;;;;;;5029745;28;20032;-68
2022/10/05 04:35:37;;;;;;;11.40;5.85;;;8.80;99.90;;;;;;5034403;28;20037;-69
2022/10/05 04:38:22;;;;;;;13.32;6.93;;;8.70;99.90;;;;;;5026617;28;20026;-69
2022/10/05 04:41:13;;;;;;;15.27;7.85;;;8.80;99.90;;;;;;5029694;28;20099;-69
2022/10/05 04:43:58;;;;;;;19.15;8.10;;;8.80;99.90;;;;;;5045704;28;20144;-68
2022/10/05 04:47:00;;;;;;;13.43;8.23;;;8.80;99.90;;;;;;5031199;28;20025;-69
2022/10/05 04:49:45;;;;;;;18.45;8.18;;;8.80;99.90;;;;;;5004599;28;20033;-69
2022/10/05 04:52:23;;;;;;;21.45;9.05;;;8.80;99.90;;;;;;5027899;28;20032;-69
2022/10/05 04:55:03;;;;;;;25.42;8.85;;;8.90;99.90;;;;;;5030747;28;20079;-68
2022/10/05 04:57:54;;;;;;;18.38;10.10;;;8.90;99.90;;;;;;5021312;28;20021;-68
2022/10/05 05:00:27;;;;;;;23.23;9.75;;;9.00;99.90;;;;;;5025526;28;20045;-68
2022/10/05 05:03:17;;;;;;;17.98;9.70;;;9.50;99.90;;;;;;5047199;28;20072;-69
2022/10/05 05:06:09;;;;;;;16.30;7.80;;;10.10;99.90;;;;;;5013800;28;20033;-70
2022/10/05 05:09:14;;;;;;;22.55;9.77;;;10.80;99.90;;;;;;5026273;28;20048;-69
2022/10/05 05:12:13;;;;;;;20.20;11.10;;;11.30;99.90;;;;;;5030571;28;20071;-69
2022/10/05 05:15:02;;;;;;;20.10;12.15;;;11.20;99.90;;;;;;5030875;28;20033;-70
2022/10/05 05:17:34;;;;;;;25.27;12.32;;;11.30;99.90;;;;;;4999103;28;20346;-70
2022/10/05 05:20:36;;;;;;;19.00;11.43;;;11.40;99.90;;;;;;5030406;28;20381;-70
2022/10/05 05:23:17;;;;;;;21.70;11.93;;;11.60;99.90;;;;;;5030386;28;20068;-70
2022/10/05 05:25:54;;;;;;;18.27;9.93;;;11.40;99.90;;;;;;5031687;28;20018;-69
2022/10/05 05:28:38;;;;;;;18.10;9.63;;;11.60;99.90;;;;;;5031492;28;20036;-70
2022/10/05 05:31:45;;;;;;;13.30;8.52;;;12.00;99.90;;;;;;5030458;28;20171;-70
2022/10/05 05:34:48;;;;;;;17.70;7.90;;;12.50;99.90;;;;;;5030164;28;20037;-70
2022/10/05 05:37:22;;;;;;;11.48;7.07;;;12.10;99.90;;;;;;5030300;28;20435;-70
2022/10/05 05:40:16;;;;;;;18.23;8.32;;;12.00;99.90;;;;;;5030537;28;20139;-70
2022/10/05 05:42:55;;;;;;;16.30;9.35;;;11.80;99.90;;;;;;5013642;28;20298;-68
2022/10/05 05:45:37;;;;;;;15.55;9.45;;;11.80;99.90;;;;;;5029759;28;20025;-70
2022/10/05 05:48:19;;;;;;;15.05;8.98;;;11.40;99.90;;;;;;5013969;28;20388;-69
2022/10/05 05:51:02;;;;;;;14.55;8.13;;;11.50;99.90;;;;;;5030164;28;20029;-68
2022/10/05 05:53:35;;;;;;;13.70;7.28;;;11.80;99.90;;;;;;5013767;28;20040;-69
2022/10/05 05:56:13;;;;;;;16.85;8.60;;;12.10;99.90;;;;;;5013501;28;20026;-69
2022/10/05 05:59:09;;;;;;;16.75;8.05;;;12.60;99.90;;;;;;5029976;28;20026;-69
2022/10/05 06:01:41;;;;;;;20.75;8.27;;;12.90;99.90;;;;;;5029989;28;20492;-70
2022/10/05 06:04:11;;;;;;;;;;;12.10;99.90;;;;;;5013684;28;20112;-70
2022/10/05 06:06:41;;;;;;;14.27;6.75;;;11.90;99.90;;;;;;5016246;28;20427;-70
2022/10/05 06:09:35;;;;;;;15.18;7.75;;;11.90;99.90;;;;;;5040510;28;20361;-71
2022/10/05 06:12:24;;;;;;;14.52;7.78;;;11.90;99.90;;;;;;5050305;28;20029;-70
2022/10/05 06:15:17;;;;;;;16.20;7.88;;;12.00;99.90;;;;;;5015448;28;20041;-68
2022/10/05 06:17:51;;;;;;;15.68;7.25;;;12.10;99.90;;;;;;5024528;28;20091;-69
2022/10/05 06:21:06;;;;;;;12.20;7.15;;;12.10;99.90;;;;;;5017117;28;20022;-70
2022/10/05 06:23:47;;;;;;;16.45;7.88;;;12.30;99.90;;;;;;5013862;28;20412;-70
2022/10/05 06:26:26;;;;;;;19.73;7.43;;;12.40;99.90;;;;;;5017383;28;20037;-67
2022/10/05 06:29:00;;;;;;;15.70;7.13;;;12.20;99.90;;;;;;5017331;28;20025;-69
2022/10/05 06:31:48;;;;;;;16.08;7.93;;;12.40;99.90;;;;;;5033780;28;20076;-70
2022/10/05 06:34:52;;;;;;;14.75;6.88;;;12.60;99.90;;;;;;5026855;28;20057;-70
2022/10/05 06:38:00;;;;;;;12.40;6.60;;;12.70;99.90;;;;;;5013237;28;20045;-70
2022/10/05 06:40:54;;;;;;;12.50;6.97;;;12.80;99.90;;;;;;4954779;29;20204;-70
2022/10/05 06:43:32;;;;;;;16.20;8.15;;;13.10;99.90;;;;;;4954055;29;20058;-70
2022/10/05 06:46:25;;;;;;;23.08;7.93;;;12.60;99.90;;;;;;4954574;29;20482;-68
2022/10/05 06:49:43;;;;;;;14.50;7.75;;;12.70;99.90;;;;;;4970739;28;20031;-70
2022/10/05 06:53:12;;;;;;;24.00;8.60;;;12.80;99.90;;;;;;4915870;29;20048;-70
2022/10/05 06:55:38;;;;;;;14.65;7.78;;;12.90;99.90;;;;;;4899301;29;20047;-71
2022/10/05 06:58:35;;;;;;;19.40;8.23;;;13.00;99.90;;;;;;4916406;29;20036;-70
2022/10/05 07:01:04;;;;;;;14.23;7.70;;;13.20;99.90;;;;;;4900206;29;20119;-70
2022/10/05 07:03:43;;;;;;;14.95;6.32;;;13.40;99.90;;;;;;4915571;29;20508;-70
2022/10/05 07:06:34;;;;;;;16.13;9.27;;;13.30;99.90;;;;;;4915294;29;20048;-70
2022/10/05 07:09:43;;;;;;;19.52;10.15;;;13.50;99.90;;;;;;4894961;29;20500;-70
2022/10/05 07:12:08;;;;;;;15.73;8.30;;;13.80;99.90;;;;;;4905342;29;20139;-70
2022/10/05 07:15:00;;;;;;;21.48;8.68;;;13.80;99.90;;;;;;4899633;29;20078;-70
2022/10/05 07:17:48;;;;;;;16.42;8.70;;;14.00;99.90;;;;;;4936094;28;20091;-70
2022/10/05 07:20:31;;;;;;;19.50;7.68;;;14.10;99.90;;;;;;4956554;28;20030;-70
2022/10/05 07:23:15;;;;;;;;;;;14.40;99.90;;;;;;4972017;28;20038;-70
2022/10/05 07:26:05;;;;;;;17.08;8.88;;;14.60;99.90;;;;;;4956704;28;19910;-70
2022/10/05 07:28:36;;;;;;;15.85;7.90;;;14.80;99.90;;;;;;5009397;28;20033;-69
2022/10/05 07:31:08;;;;;;;14.65;8.55;;;14.80;99.90;;;;;;5032661;28;20072;-71
2022/10/05 07:33:49;;;;;;;15.40;9.48;;;15.00;99.90;;;;;;5032350;28;20073;-70
2022/10/05 07:39:41;;;;;;;20.05;9.27;;;14.90;99.90;;;;;;5032696;28;20033;-70
2022/10/05 07:42:17;;;;;;;;;;;14.90;99.90;;;;;;5032884;28;20042;-70
2022/10/05 07:44:59;;;;;;;16.05;8.80;;;14.90;99.90;;;;;;5048661;28;19931;-70
2022/10/05 07:48:01;;;;;;;16.35;9.18;;;15.10;99.90;;;;;;5031962;28;20053;-70
2022/10/05 07:50:38;;;;;;;19.70;10.70;;;15.20;99.90;;;;;;4937609;29;20039;-68
2022/10/05 07:53:09;;;;;;;15.25;8.65;;;15.30;99.90;;;;;;4937454;29;20499;-71
2022/10/05 07:55:46;;;;;;;16.20;9.30;;;15.40;99.90;;;;;;4937310;28;20035;-68
2022/10/05 07:58:36;;;;;;;20.38;9.93;;;15.50;99.90;;;;;;4944634;28;20401;-69
2022/10/05 08:01:11;;;;;;;19.25;10.25;;;15.70;99.90;;;;;;4955301;28;20047;-71
2022/10/05 08:04:15;;;;;;;29.08;10.25;;;15.70;99.90;;;;;;4935420;29;20416;-71
2022/10/05 08:06:58;;;;;;;18.92;10.48;;;15.70;99.90;;;;;;4894560;29;20052;-71
2022/10/05 08:09:33;;;;;;;14.90;8.13;;;15.80;99.90;;;;;;4894384;29;20058;-71
2022/10/05 08:12:01;;;;;;;16.42;9.13;;;15.70;99.90;;;;;;4895179;29;20072;-70
2022/10/05 08:14:36;;;;;;;19.13;9.10;;;16.00;99.90;;;;;;4895114;29;20420;-71
2022/10/05 08:17:11;;;;;;;17.88;8.80;;;16.00;99.90;;;;;;4908496;29;20036;-70
2022/10/05 08:19:47;;;;;;;17.52;8.73;;;16.20;99.90;;;;;;4894886;29;20028;-70
2022/10/05 08:22:27;;;;;;;15.90;9.32;;;16.40;99.90;;;;;;4894635;29;20052;-71
2022/10/05 08:25:08;;;;;;;18.10;8.90;;;16.50;99.90;;;;;;4894404;29;20522;-70
2022/10/05 08:27:49;;;;;;;17.85;8.80;;;16.50;99.90;;;;;;4923461;29;20047;-72
2022/10/05 08:30:16;;;;;;;13.93;8.18;;;16.70;99.90;;;;;;4951532;28;20128;-71
2022/10/05 08:32:54;;;;;;;18.17;8.50;;;16.70;99.90;;;;;;4951450;28;20061;-71
2022/10/05 08:35:23;;;;;;;17.90;7.47;;;16.80;99.90;;;;;;4951272;28;20447;-70
2022/10/05 08:37:51;;;;;;;18.55;8.40;;;16.80;99.90;;;;;;4951460;29;20115;-71
2022/10/05 08:40:56;;;;;;;16.25;7.95;;;16.80;99.90;;;;;;4992583;28;20396;-71
2022/10/05 08:43:42;;;;;;;20.52;8.32;;;16.90;99.90;;;;;;4970598;28;20047;-71
2022/10/05 08:46:35;;;;;;;19.17;9.23;;;17.00;99.90;;;;;;4970928;28;20070;-71
2022/10/05 08:49:38;;;;;;;16.13;7.95;;;17.10;99.90;;;;;;4971299;28;20560;-71
2022/10/05 08:52:22;;;;;;;16.83;5.53;;;16.90;99.90;;;;;;4971633;28;20121;-71
2022/10/05 08:55:06;;;;;;;10.32;4.60;;;17.00;99.90;;;;;;4971811;28;20039;-71
2022/10/05 08:58:07;;;;;;;13.60;5.65;;;17.00;99.90;;;;;;4971343;28;20041;-71
2022/10/05 09:01:00;;;;;;;7.88;4.95;;;16.80;99.90;;;;;;4971542;28;20038;-71
2022/10/05 09:03:45;;;;;;;;;;;16.90;99.90;;;;;;4971633;28;20389;-71
2022/10/05 09:06:23;;;;;;;11.75;5.15;;;17.10;99.90;;;;;;4970897;28;19974;-71
2022/10/05 09:09:05;;;;;;;7.43;4.15;;;17.30;99.90;;;;;;4958587;28;20039;-70
2022/10/05 09:12:01;;;;;;;9.73;4.63;;;17.40;99.90;;;;;;4971029;28;20027;-71
2022/10/05 09:14:47;;;;;;;11.63;4.70;;;17.40;99.90;;;;;;4967639;28;20034;-71
2022/10/05 09:17:35;;;;;;;8.77;5.20;;;17.60;99.90;;;;;;4970743;28;20058;-67
2022/10/05 09:20:19;;;;;;;8.50;5.28;;;17.70;99.90;;;;;;4982973;28;20045;-71
2022/10/05 09:22:58;;;;;;;10.45;4.47;;;17.80;99.90;;;;;;5031716;28;20539;-71
2022/10/05 09:25:55;;;;;;;11.10;5.18;;;18.00;99.90;;;;;;5031616;28;20028;-64
2022/10/05 09:28:39;;;;;;;9.88;4.47;;;17.90;99.90;;;;;;5031436;28;20040;-71
2022/10/05 09:31:34;;;;;;;9.52;5.07;;;17.90;99.90;;;;;;5011899;28;20029;-71
2022/10/05 09:34:27;;;;;;;9.55;5.20;;;18.10;99.90;;;;;;5031730;28;20115;-71
2022/10/05 09:37:16;;;;;;;;;;;18.10;99.90;;;;;;5032576;28;20124;-71
2022/10/05 09:40:02;;;;;;;18.02;9.77;;;17.80;99.90;;;;;;5031755;28;20328;-70
2022/10/05 09:42:45;;;;;;;20.98;9.73;;;18.10;99.90;;;;;;5031620;28;20049;-71
2022/10/05 09:45:34;;;;;;;17.75;9.65;;;18.20;99.90;;;;;;5033559;28;20084;-70
2022/10/05 09:48:14;;;;;;;10.10;5.45;;;18.30;99.90;;;;;;5035962;28;20026;-71
2022/10/05 09:51:24;;;;;;;11.88;5.38;;;18.30;99.90;;;;;;5036298;28;20034;-71
2022/10/05 09:53:59;;;;;;;12.25;4.82;;;18.30;99.90;;;;;;5035132;28;20380;-72
2022/10/05 09:56:34;;;;;;;6.82;3.85;;;18.50;99.90;;;;;;5035331;28;20036;-71
2022/10/05 09:59:05;;;;;;;9.50;3.72;;;18.30;99.90;;;;;;5035683;28;20048;-71
2022/10/05 10:01:50;;;;;;;7.25;3.85;;;18.30;99.90;;;;;;5035258;28;20037;-71
2022/10/05 10:04:44;;;;;;;8.30;4.07;;;18.50;99.90;;;;;;5035145;28;20464;-71
2022/10/05 10:07:31;;;;;;;8.75;3.80;;;18.40;99.90;;;;;;5042125;28;20056;-71
2022/10/05 10:10:03;;;;;;;5.57;3.28;;;18.50;99.90;;;;;;5038453;28;20029;-71
2022/10/05 10:12:51;;;;;;;7.72;3.30;;;18.40;99.90;;;;;;5035491;28;20036;-71
2022/10/05 10:15:32;;;;;;;4.30;2.75;;;18.40;99.90;;;;;;5035393;28;20043;-71
2022/10/05 10:18:13;;;;;;;12.30;2.97;;;18.60;99.90;;;;;;5035655;28;20486;-70
2022/10/05 10:21:09;;;;;;;6.68;2.65;;;18.50;99.90;;;;;;5035529;28;20080;-71
2022/10/05 10:24:09;;;;;;;4.10;2.30;;;18.70;99.90;;;;;;5034384;28;20041;-71
2022/10/05 10:26:56;;;;;;;4.97;2.50;;;19.00;99.90;;;;;;5035542;28;20476;-71
2022/10/05 10:29:22;;;;;;;6.95;2.58;;;19.00;99.90;;;;;;5033792;28;20561;-70
2022/10/05 10:32:00;;;;;;;5.63;2.67;;;19.00;99.90;;;;;;5034887;28;20029;-71
2022/10/05 10:34:56;;;;;;;5.32;2.40;;;19.10;99.90;;;;;;5034979;28;20091;-71
2022/10/05 10:37:57;;;;;;;6.60;3.13;;;18.90;99.90;;;;;;5035000;28;20468;-71
2022/10/05 10:40:35;;;;;;;5.68;3.10;;;19.00;99.90;;;;;;5034925;28;20026;-70
2022/10/05 10:43:14;;;;;;;7.20;3.15;;;19.20;99.90;;;;;;5033494;28;20511;-70
2022/10/05 10:46:01;;;;;;;7.75;3.35;;;19.00;99.90;;;;;;5034770;28;20029;-71
2022/10/05 10:48:39;;;;;;;6.95;3.58;;;19.00;99.90;;;;;;5034987;28;20453;-71
2022/10/05 10:51:24;;;;;;;13.23;4.32;;;18.90;99.90;;;;;;5034581;28;20471;-70
2022/10/05 10:54:02;;;;;;;6.68;3.50;;;18.80;99.90;;;;;;5034661;28;20112;-71
2022/10/05 10:56:57;;;;;;;4.30;2.75;;;18.50;99.90;;;;;;5034782;28;20025;-71
2022/10/05 10:59:54;;;;;;;7.00;3.40;;;18.50;99.90;;;;;;5003803;28;20037;-71
2022/10/05 11:02:41;;;;;;;6.35;3.13;;;18.50;99.90;;;;;;5034116;28;20041;-71
2022/10/05 11:05:06;;;;;;;6.63;3.30;;;18.70;99.90;;;;;;5033788;28;20037;-71
2022/10/05 11:07:53;;;;;;;7.85;2.85;;;18.90;99.90;;;;;;5040043;28;20055;-71
2022/10/05 11:10:38;;;;;;;6.13;2.92;;;18.80;99.90;;;;;;5033815;28;20057;-69
2022/10/05 11:13:18;;;;;;;7.13;3.45;;;18.70;99.90;;;;;;5034496;28;20017;-71
2022/10/05 11:16:06;;;;;;;6.95;2.60;;;18.80;99.90;;;;;;5033767;28;20468;-71
2022/10/05 11:18:38;;;;;;;6.45;3.65;;;18.90;99.90;;;;;;5034191;28;20052;-69
2022/10/05 11:21:20;;;;;;;9.05;4.15;;;18.90;99.90;;;;;;5034314;28;20034;-71
2022/10/05 11:24:07;;;;;;;6.65;3.13;;;18.90;99.90;;;;;;5033862;28;20040;-70
2022/10/05 11:26:44;;;;;;;6.22;2.70;;;19.00;99.90;;;;;;5034002;28;20022;-71
2022/10/05 11:29:31;;;;;;;5.95;2.40;;;19.00;99.90;;;;;;5034092;28;20033;-71
2022/10/05 11:32:26;;;;;;;4.32;2.38;;;19.00;99.90;;;;;;5034028;28;20076;-71
2022/10/05 11:34:55;;;;;;;5.97;2.67;;;19.00;99.90;;;;;;5034108;28;20108;-71
2022/10/05 11:37:23;;;;;;;5.07;3.33;;;18.90;99.90;;;;;;5033759;28;20026;-71
2022/10/05 11:40:15;;;;;;;8.18;3.13;;;18.70;99.90;;;;;;5033967;28;20032;-71
2022/10/05 11:42:54;;;;;;;5.65;3.55;;;18.80;99.90;;;;;;5034138;28;20052;-71
2022/10/05 11:45:29;;;;;;;5.72;3.65;;;18.90;99.90;;;;;;5034065;28;20047;-71
2022/10/05 11:48:34;;;;;;;5.72;3.15;;;19.00;99.90;;;;;;5032187;28;20508;-69
2022/10/05 11:51:42;;;;;;;4.40;3.20;;;18.80;99.90;;;;;;5033262;28;20037;-71
2022/10/05 11:54:31;;;;;;;5.43;2.70;;;18.90;99.90;;;;;;4952724;28;20034;-70
2022/10/05 11:57:11;;;;;;;4.40;2.30;;;19.00;99.90;;;;;;4953638;28;20043;-71
2022/10/05 11:59:56;;;;;;;5.32;2.45;;;19.10;99.90;;;;;;4953090;28;20388;-72
2022/10/05 12:02:54;;;;;;;5.72;2.28;;;19.30;99.90;;;;;;4952147;29;20039;-71
2022/10/05 12:05:49;;;;;;;8.07;3.17;;;19.30;99.90;;;;;;4952283;28;20049;-71
2022/10/05 12:08:21;;;;;;;7.47;2.22;;;19.30;99.90;;;;;;4900517;29;20132;-71
2022/10/05 12:10:56;;;;;;;5.43;2.58;;;19.20;99.90;;;;;;4914724;29;20036;-71
2022/10/05 12:13:24;;;;;;;3.95;2.08;;;19.20;99.90;;;;;;4914545;29;20044;-71
2022/10/05 12:16:08;;;;;;;7.32;2.55;;;19.30;99.90;;;;;;4914296;29;20043;-70
2022/10/05 12:18:38;;;;;;;6.47;2.83;;;19.10;99.90;;;;;;4914668;29;20032;-72
2022/10/05 12:21:26;;;;;;;4.85;2.38;;;19.20;99.90;;;;;;4914722;29;20467;-71
2022/10/05 12:24:01;;;;;;;5.13;2.38;;;19.20;99.90;;;;;;4914777;29;20044;-71
2022/10/05 12:26:34;;;;;;;4.38;2.42;;;19.00;99.90;;;;;;4914936;29;20044;-72
2022/10/05 12:29:18;;;;;;;6.00;2.70;;;19.10;99.90;;;;;;4914908;29;20480;-72
2022/10/05 12:31:47;;;;;;;5.60;2.78;;;19.20;99.90;;;;;;4965301;28;20050;-70
2022/10/05 12:34:23;;;;;;;9.40;2.60;;;19.20;99.90;;;;;;4972184;28;20026;-71
2022/10/05 12:37:01;;;;;;;4.68;1.98;;;19.30;99.90;;;;;;4971520;28;20045;-72
2022/10/05 12:39:55;;;;;;;3.85;1.77;;;19.40;99.90;;;;;;4971502;28;20030;-72
2022/10/05 12:42:31;;;;;;;5.72;2.35;;;19.40;99.90;;;;;;4971514;28;20109;-70
2022/10/05 12:45:26;;;;;;;5.43;2.20;;;19.40;99.90;;;;;;5009283;28;20468;-71
2022/10/05 12:48:06;;;;;;;6.75;1.63;;;19.50;99.90;;;;;;4951488;29;20122;-71
2022/10/05 12:50:40;;;;;;;4.72;2.00;;;19.40;99.90;;;;;;4952107;28;20114;-72
2022/10/05 12:53:06;;;;;;;4.03;1.77;;;19.40;99.90;;;;;;4951991;29;20046;-71
2022/10/05 12:55:53;;;;;;;6.78;2.30;;;19.40;99.90;;;;;;4952074;29;20031;-69
2022/10/05 12:58:34;;;;;;;4.47;2.30;;;19.40;99.90;;;;;;4951580;29;20078;-71
2022/10/05 13:01:08;;;;;;;5.88;2.40;;;19.20;99.90;;;;;;4951495;29;20031;-72
2022/10/05 13:03:45;;;;;;;7.70;3.00;;;19.50;99.90;;;;;;4951431;29;20617;-72
2022/10/05 13:06:46;;;;;;;8.30;3.50;;;19.50;99.90;;;;;;4950584;28;21216;-71
2022/10/05 13:09:19;;;;;;;10.32;4.13;;;19.30;99.90;;;;;;4941790;29;20054;-71
2022/10/05 13:11:49;;;;;;;5.63;3.20;;;19.20;99.90;;;;;;4951574;29;20031;-71
2022/10/05 13:14:44;;;;;;;4.30;2.08;;;19.10;99.90;;;;;;4951198;29;20834;-69
2022/10/05 13:17:20;;;;;;;5.55;2.60;;;19.00;99.90;;;;;;4951198;29;20035;-71
2022/10/05 13:19:51;;;;;;;5.55;2.60;;;19.00;99.90;;;;;;4950424;29;20167;-71
2022/10/05 13:22:30;;;;;;;5.28;2.65;;;19.00;99.90;;;;;;4951162;28;20039;-71
2022/10/05 13:25:26;;;;;;;4.88;2.85;;;18.90;99.90;;;;;;5013865;28;20041;-71
2022/10/05 13:28:00;;;;;;;11.13;2.95;;;19.00;99.90;;;;;;5031689;28;20455;-71
2022/10/05 13:30:27;;;;;;;8.13;2.60;;;18.90;99.90;;;;;;5032135;28;20381;-71
2022/10/05 13:33:13;;;;;;;7.85;3.05;;;19.00;99.90;;;;;;5031688;28;20105;-72
2022/10/05 13:35:51;;;;;;;5.32;2.92;;;18.90;99.90;;;;;;5031402;28;20033;-71
2022/10/05 13:38:35;;;;;;;5.65;2.30;;;19.00;99.90;;;;;;5031179;28;20120;-72
2022/10/05 13:41:00;;;;;;;3.58;2.47;;;19.00;99.90;;;;;;5031594;28;20022;-71
2022/10/05 13:43:57;;;;;;;6.28;2.67;;;19.00;99.90;;;;;;5031548;28;20460;-70
2022/10/05 13:46:47;;;;;;;7.93;3.08;;;19.00;99.90;;;;;;5032195;28;20013;-70
2022/10/05 13:49:28;;;;;;;3.85;2.65;;;19.00;99.90;;;;;;5028424;28;20060;-70
2022/10/05 13:52:08;;;;;;;4.28;2.85;;;19.00;99.90;;;;;;5035137;28;20029;-70
2022/10/05 13:55:05;;;;;;;5.53;2.53;;;18.90;99.90;;;;;;5030560;28;20073;-70
2022/10/05 13:58:04;;;;;;;7.90;2.63;;;19.00;99.90;;;;;;5031404;28;20459;-67
2022/10/05 14:00:34;;;;;;;10.65;3.47;;;18.90;99.90;;;;;;5028261;28;20504;-67
2022/10/05 14:03:00;;;;;;;6.45;3.20;;;18.90;99.90;;;;;;5031561;28;20052;-67
2022/10/05 14:05:29;;;;;;;6.10;3.60;;;18.80;99.90;;;;;;5031514;28;20024;-66